Aviation WX

[Source: ADDS]
METAR
KFKL 170756Z AUTO 22008KT 10SM FEW070 OVC110 04/01 A3000 RMK AO2 SLP168 T00390011 =
KFKL 170520Z 1706/1806 23010KT P6SM SKC WS020/27040KT FM171500 27012G22KT P6SM VCSH BKN015 FM172000 30015G28KT P6SM VCSH BKN025 FM180200 31012KT P6SM OVC015
TAF
KFKL 170520Z 1706/1806 23010KT P6SM SKC WS020/27040KT FM171500 27012G22KT P6SM VCSH BKN015 FM172000 30015G28KT P6SM VCSH BKN025 FM180200 31012KT P6SM OVC015 =

Clarion Airport T-Shirts

small

Weather Maps

Weather Information

 An Automated Weather Observation System (AWOS IIIp) is installed at Clarion County Airport, which can be accessed on 118.275 Mhz, or by phone, 814-227-2899.



Dubois-Jefferson County (DUJ) and Venango Regional (FKL) are the closest airports  having weather reporting. (METAR's and TAF's) 



FKL AWOS    118.175 Mhz   814-437-2066
DUJ ASOS     119.025 Mhz   814-328-5140
                                                       





WebAWOS